createdAt,value
2023-03-05T00:00:20.007Z,82.00
2023-03-05T00:02:47.805Z,81.10
2023-03-05T00:05:15.591Z,82.10
2023-03-05T00:07:43.361Z,82.20
2023-03-05T00:10:11.831Z,81.80
2023-03-05T00:12:39.637Z,80.50
2023-03-05T00:15:10.589Z,82.00
2023-03-05T00:17:38.392Z,81.40
2023-03-05T00:20:07.004Z,81.80
2023-03-05T00:22:35.639Z,83.10
2023-03-05T00:25:03.938Z,81.80
2023-03-05T00:27:31.933Z,82.80
2023-03-05T00:29:59.825Z,82.50
2023-03-05T00:32:29.039Z,81.80
2023-03-05T00:34:56.887Z,81.70
2023-03-05T00:37:24.681Z,82.90
2023-03-05T00:39:52.450Z,81.40
2023-03-05T00:42:20.223Z,82.40
2023-03-05T00:44:48.011Z,81.40
2023-03-05T00:47:18.218Z,83.10
2023-03-05T00:49:47.553Z,82.80
2023-03-05T00:52:15.317Z,83.60
2023-03-05T00:54:43.548Z,81.30
2023-03-05T00:57:11.366Z,82.80
2023-03-05T00:59:39.219Z,82.00
2023-03-05T01:02:07.178Z,82.00
2023-03-05T01:04:35.059Z,81.70
2023-03-05T01:07:04.197Z,81.60
2023-03-05T01:09:32.036Z,82.30
2023-03-05T01:12:00.015Z,82.10
2023-03-05T01:14:28.266Z,83.30
2023-03-05T01:16:56.147Z,82.00
2023-03-05T01:19:23.958Z,83.20
2023-03-05T01:21:51.736Z,82.80
2023-03-05T01:24:20.863Z,83.70
2023-03-05T01:26:49.314Z,83.60
2023-03-05T01:29:17.110Z,83.60
2023-03-05T01:31:45.163Z,83.40
2023-03-05T01:34:13.635Z,83.20
2023-03-05T01:36:42.153Z,83.60
2023-03-05T01:39:09.940Z,82.30
2023-03-05T01:41:39.088Z,83.50
2023-03-05T01:44:07.003Z,84.40
2023-03-05T01:46:36.432Z,83.70
2023-03-05T01:49:16.858Z,84.50
2023-03-05T01:51:52.704Z,84.70
2023-03-05T01:54:23.113Z,84.10
2023-03-05T01:56:54.413Z,85.50
2023-03-05T01:59:24.280Z,85.00
2023-03-05T02:01:55.468Z,85.70
2023-03-05T02:04:28.484Z,84.70
2023-03-05T02:06:56.423Z,86.10
2023-03-05T02:09:24.354Z,86.00
2023-03-05T02:11:53.694Z,85.80
2023-03-05T02:14:24.188Z,85.40
2023-03-05T02:16:52.083Z,85.40
2023-03-05T02:19:19.992Z,83.90
2023-03-05T02:21:50.579Z,84.80
2023-03-05T02:24:32.553Z,84.60
2023-03-05T02:27:01.286Z,85.70
2023-03-05T02:29:30.326Z,85.20
2023-03-05T02:31:58.253Z,85.30
2023-03-05T02:34:26.199Z,84.70
2023-03-05T02:36:56.388Z,86.00
2023-03-05T02:39:24.958Z,84.20
2023-03-05T02:41:52.785Z,86.80
2023-03-05T02:44:20.725Z,86.10
2023-03-05T02:46:48.755Z,86.00
2023-03-05T02:49:16.815Z,84.90
2023-03-05T02:51:44.672Z,86.50
2023-03-05T02:54:14.128Z,85.10
2023-03-05T02:56:43.355Z,86.20
2023-03-05T02:59:11.335Z,84.80
2023-03-05T03:01:39.486Z,84.20
2023-03-05T03:04:07.316Z,84.60
2023-03-05T03:06:35.214Z,84.50
2023-03-05T03:09:03.127Z,84.80
2023-03-05T03:11:32.266Z,85.00
2023-03-05T03:14:00.662Z,85.30
2023-03-05T03:16:28.524Z,85.30
2023-03-05T03:18:56.324Z,85.20
2023-03-05T03:21:26.791Z,85.50
2023-03-05T03:23:54.709Z,85.70
2023-03-05T03:26:22.617Z,86.50
2023-03-05T03:28:51.835Z,85.70
2023-03-05T03:31:19.784Z,84.60
2023-03-05T03:33:47.686Z,83.50
2023-03-05T03:36:15.501Z,84.20
2023-03-05T03:38:43.570Z,85.80
2023-03-05T03:41:11.408Z,86.40
2023-03-05T03:43:39.390Z,84.20
2023-03-05T03:46:08.786Z,85.50
2023-03-05T03:48:36.883Z,84.40
2023-03-05T03:51:08.845Z,84.00
2023-03-05T03:53:36.749Z,83.90
2023-03-05T03:56:05.176Z,84.40
2023-03-05T03:58:33.420Z,85.10
2023-03-05T04:01:01.301Z,84.60
2023-03-05T04:03:30.481Z,84.70
2023-03-05T04:05:58.325Z,85.30
2023-03-05T04:08:26.129Z,85.60
2023-03-05T04:10:53.942Z,86.30
2023-03-05T04:13:21.688Z,87.30
2023-03-05T04:15:50.205Z,87.70
2023-03-05T04:18:18.036Z,87.00
2023-03-05T04:20:47.176Z,85.50
2023-03-05T04:23:15.097Z,86.80
2023-03-05T04:25:42.966Z,85.30
2023-03-05T04:28:12.247Z,86.40
2023-03-05T04:30:40.099Z,86.40
2023-03-05T04:33:07.868Z,86.00
2023-03-05T04:35:35.684Z,86.90
2023-03-05T04:38:04.894Z,86.20
2023-03-05T04:40:32.682Z,85.90
2023-03-05T04:43:00.458Z,87.10
2023-03-05T04:45:28.400Z,89.00
2023-03-05T04:47:56.218Z,87.60
2023-03-05T04:50:24.109Z,86.80
2023-03-05T04:52:51.928Z,86.70
2023-03-05T04:55:21.210Z,86.70
2023-03-05T04:57:49.186Z,87.40
2023-03-05T05:00:18.499Z,88.60
2023-03-05T05:02:48.754Z,86.30
2023-03-05T05:05:18.964Z,86.90
2023-03-05T05:07:47.389Z,88.20
2023-03-05T05:10:16.309Z,87.90
2023-03-05T05:12:45.487Z,87.60
2023-03-05T05:15:13.640Z,88.20
2023-03-05T05:17:41.496Z,87.10
2023-03-05T05:20:11.795Z,86.80
2023-03-05T05:22:39.634Z,85.80
2023-03-05T05:25:08.197Z,86.50
2023-03-05T05:27:35.984Z,87.60
2023-03-05T05:30:06.295Z,86.20
2023-03-05T05:32:35.848Z,85.80
2023-03-05T05:35:03.922Z,86.00
2023-03-05T05:37:31.730Z,85.00
2023-03-05T05:39:59.601Z,83.40
2023-03-05T05:42:29.345Z,84.80
2023-03-05T05:44:57.151Z,84.00
2023-03-05T05:47:26.506Z,84.40
2023-03-05T05:49:54.307Z,83.00
2023-03-05T05:52:22.678Z,85.40
2023-03-05T05:54:50.724Z,85.30
2023-03-05T05:57:18.596Z,84.40
2023-03-05T05:59:46.417Z,85.00
2023-03-05T06:02:14.310Z,83.60
2023-03-05T06:04:43.496Z,85.60
2023-03-05T06:07:11.300Z,86.60
2023-03-05T06:09:39.132Z,86.10
2023-03-05T06:12:08.364Z,85.10
2023-03-05T06:14:36.192Z,86.30
2023-03-05T06:17:03.986Z,85.90
2023-03-05T06:19:31.872Z,85.60
2023-03-05T06:22:01.009Z,86.10
2023-03-05T06:24:28.816Z,85.70
2023-03-05T06:26:56.595Z,86.40
2023-03-05T06:29:24.393Z,87.20
2023-03-05T06:31:52.238Z,86.90
2023-03-05T06:34:20.028Z,87.40
2023-03-05T06:36:47.798Z,89.80
2023-03-05T06:39:17.256Z,87.80
2023-03-05T06:41:45.541Z,90.70
2023-03-05T06:44:13.486Z,91.00
2023-03-05T06:46:41.260Z,93.10
2023-03-05T06:49:09.608Z,93.20
2023-03-05T06:51:40.105Z,93.90
2023-03-05T06:54:10.000Z,93.60
2023-03-05T06:56:40.743Z,93.90
2023-03-05T06:59:08.800Z,93.60
2023-03-05T07:01:36.736Z,91.70
2023-03-05T07:04:04.818Z,92.20
2023-03-05T07:06:34.534Z,92.60
2023-03-05T07:09:03.156Z,93.00
2023-03-05T07:11:31.275Z,92.20
2023-03-05T07:14:00.644Z,92.60
2023-03-05T07:16:32.862Z,92.90
2023-03-05T07:19:03.696Z,92.80
2023-03-05T07:21:33.297Z,92.70
2023-03-05T07:24:02.835Z,93.00
2023-03-05T07:26:31.240Z,92.30
2023-03-05T07:29:01.243Z,93.10
2023-03-05T07:31:31.607Z,93.10
2023-03-05T07:34:00.802Z,93.00
2023-03-05T07:36:29.247Z,92.60
2023-03-05T07:38:57.332Z,93.30
2023-03-05T07:41:25.305Z,92.40
2023-03-05T07:43:54.922Z,93.30
2023-03-05T07:46:27.419Z,92.70
2023-03-05T07:48:55.680Z,93.00
2023-03-05T07:51:25.195Z,91.60
2023-03-05T07:53:53.987Z,92.40
2023-03-05T07:56:26.275Z,92.90
2023-03-05T07:58:54.259Z,92.80
2023-03-05T08:01:22.142Z,92.70
2023-03-05T08:03:51.306Z,92.60
2023-03-05T08:06:19.107Z,92.50
2023-03-05T08:08:46.937Z,92.50
2023-03-05T08:11:16.750Z,92.10
2023-03-05T08:13:45.495Z,92.10
2023-03-05T08:16:18.493Z,92.00
2023-03-05T08:18:46.732Z,91.70
2023-03-05T08:21:20.510Z,92.20
2023-03-05T08:23:48.409Z,91.90
2023-03-05T08:26:18.398Z,92.40
2023-03-05T08:28:46.362Z,92.10
2023-03-05T08:31:16.025Z,92.50
2023-03-05T08:33:44.376Z,92.30
2023-03-05T08:36:13.179Z,92.80
2023-03-05T08:38:44.482Z,92.40
2023-03-05T08:41:12.314Z,92.20
2023-03-05T08:43:40.239Z,92.50
2023-03-05T08:46:09.136Z,92.30
2023-03-05T08:48:36.966Z,91.90
2023-03-05T08:51:08.616Z,92.30
2023-03-05T08:53:36.545Z,91.90
2023-03-05T08:56:06.152Z,91.80
2023-03-05T08:58:34.362Z,92.20
2023-03-05T09:01:02.485Z,92.20
2023-03-05T09:03:30.267Z,91.90
2023-03-05T09:06:01.732Z,91.70
2023-03-05T09:08:30.015Z,91.90
2023-03-05T09:10:58.664Z,91.30
2023-03-05T09:13:27.772Z,92.10
2023-03-05T09:15:56.503Z,91.50
2023-03-05T09:18:24.473Z,91.30
2023-03-05T09:20:52.306Z,92.10
2023-03-05T09:23:20.114Z,91.50
2023-03-05T09:25:48.653Z,92.00
2023-03-05T09:28:16.861Z,91.90
2023-03-05T09:30:46.048Z,91.80
2023-03-05T09:33:13.983Z,91.80
2023-03-05T09:35:42.037Z,92.10
2023-03-05T09:38:09.944Z,92.00
2023-03-05T09:40:46.277Z,91.50
2023-03-05T09:43:23.342Z,91.60
2023-03-05T09:46:05.370Z,91.20
2023-03-05T09:48:49.323Z,91.60
2023-03-05T09:51:23.099Z,91.20
2023-03-05T09:54:02.899Z,90.80
2023-03-05T09:56:34.996Z,91.10
2023-03-05T09:59:05.934Z,91.10
2023-03-05T10:01:39.757Z,90.90
2023-03-05T10:04:12.359Z,90.10
2023-03-05T10:06:48.015Z,89.80
2023-03-05T10:09:24.585Z,89.00
2023-03-05T10:11:57.266Z,88.20
2023-03-05T10:14:30.565Z,89.60
2023-03-05T10:17:17.975Z,89.50
2023-03-05T10:20:14.893Z,89.60
2023-03-05T10:22:59.698Z,90.00
2023-03-05T10:25:35.079Z,89.10
2023-03-05T10:28:06.776Z,91.30
2023-03-05T10:30:54.381Z,91.30
2023-03-05T10:33:33.647Z,90.90
2023-03-05T10:36:27.874Z,90.30
2023-03-05T10:39:26.937Z,90.00
2023-03-05T10:42:05.756Z,90.70
2023-03-05T10:44:37.951Z,90.40
2023-03-05T10:47:15.750Z,90.40
2023-03-05T10:49:51.038Z,90.50
2023-03-05T10:52:19.943Z,90.50
2023-03-05T10:54:47.727Z,90.20
2023-03-05T10:57:19.808Z,90.20
2023-03-05T10:59:51.332Z,90.90
2023-03-05T11:02:20.344Z,90.80
2023-03-05T11:04:50.724Z,90.40
2023-03-05T11:07:35.352Z,90.10
2023-03-05T11:10:08.203Z,90.10
2023-03-05T11:12:37.631Z,90.00
2023-03-05T11:15:08.317Z,91.30
2023-03-05T11:17:38.352Z,91.40
2023-03-05T11:20:33.826Z,91.10
2023-03-05T11:23:07.581Z,90.40
2023-03-05T11:25:36.747Z,90.10
2023-03-05T11:28:05.269Z,90.40
2023-03-05T11:30:35.775Z,90.10
2023-03-05T11:33:14.073Z,90.00
2023-03-05T11:35:45.222Z,88.70
2023-03-05T11:38:18.363Z,88.80
2023-03-05T11:40:46.816Z,89.10
2023-03-05T11:43:17.357Z,88.80
2023-03-05T11:45:46.772Z,88.30
2023-03-05T11:48:20.754Z,88.20
2023-03-05T11:50:55.545Z,88.50
2023-03-05T11:53:28.203Z,86.20
2023-03-05T11:56:00.855Z,87.60
2023-03-05T11:58:36.300Z,88.20
2023-03-05T12:01:09.392Z,88.00
2023-03-05T12:03:39.741Z,87.90
2023-03-05T12:06:17.731Z,88.00
2023-03-05T12:08:49.876Z,87.70
2023-03-05T12:11:21.129Z,87.60
2023-03-05T12:13:53.620Z,87.40
2023-03-05T12:16:30.456Z,88.70
2023-03-05T12:19:18.571Z,85.80
2023-03-05T12:21:51.787Z,86.60
2023-03-05T12:24:38.368Z,86.50
2023-03-05T12:27:34.512Z,85.50
2023-03-05T12:30:03.185Z,85.20
2023-03-05T12:33:01.999Z,85.50
2023-03-05T12:35:38.065Z,86.30
2023-03-05T12:38:27.012Z,85.30
2023-03-05T12:41:31.018Z,86.30
2023-03-05T12:44:19.313Z,86.60
2023-03-05T12:47:07.524Z,84.90
2023-03-05T12:49:39.676Z,85.50
2023-03-05T12:52:19.429Z,85.30
2023-03-05T12:55:01.023Z,86.60
2023-03-05T12:57:31.277Z,85.80
2023-03-05T13:00:05.056Z,85.30
2023-03-05T13:02:37.644Z,85.80
2023-03-05T13:05:18.048Z,85.20
2023-03-05T13:07:45.887Z,85.00
2023-03-05T13:10:25.235Z,85.90
2023-03-05T13:12:55.533Z,86.30
2023-03-05T13:15:26.552Z,86.50
2023-03-05T13:17:57.900Z,86.30
2023-03-05T13:20:31.339Z,85.70
2023-03-05T13:23:17.051Z,84.60
2023-03-05T13:25:46.112Z,85.50
2023-03-05T13:28:15.916Z,85.00
2023-03-05T13:30:51.392Z,84.20
2023-03-05T13:33:24.285Z,86.10
2023-03-05T13:35:54.145Z,84.70
2023-03-05T13:38:29.431Z,84.50
2023-03-05T13:41:22.361Z,85.10
2023-03-05T13:43:52.559Z,84.10
2023-03-05T13:46:28.134Z,83.60
2023-03-05T13:48:56.110Z,85.10
2023-03-05T13:51:33.156Z,85.00
2023-03-05T13:54:00.995Z,85.10
2023-03-05T13:56:28.751Z,85.20
2023-03-05T13:58:57.752Z,84.30
2023-03-05T14:01:31.817Z,84.50
2023-03-05T14:04:17.660Z,85.10
2023-03-05T14:06:52.819Z,85.10
2023-03-05T14:09:23.215Z,84.50
2023-03-05T14:12:02.488Z,85.20
2023-03-05T14:14:32.037Z,85.90
2023-03-05T14:17:24.698Z,85.50
2023-03-05T14:19:53.057Z,85.10
2023-03-05T14:22:35.396Z,86.40
2023-03-05T14:25:03.356Z,84.70
2023-03-05T14:27:34.517Z,84.70
2023-03-05T14:30:03.198Z,86.60
2023-03-05T14:32:34.506Z,83.60
2023-03-05T14:35:05.928Z,86.50
2023-03-05T14:37:39.662Z,85.00
2023-03-05T14:40:19.709Z,84.60
2023-03-05T14:42:52.882Z,85.60
2023-03-05T14:45:23.758Z,87.10
2023-03-05T14:47:52.691Z,87.00
2023-03-05T14:50:23.305Z,87.10
2023-03-05T14:52:55.552Z,86.60
2023-03-05T14:55:25.730Z,85.30
2023-03-05T14:58:00.606Z,84.20
2023-03-05T15:00:29.142Z,85.30
2023-03-05T15:02:57.912Z,85.50
2023-03-05T15:05:26.114Z,86.40
2023-03-05T15:07:55.305Z,85.80
2023-03-05T15:10:25.218Z,85.80
2023-03-05T15:12:53.776Z,84.90
2023-03-05T15:15:22.787Z,86.50
2023-03-05T15:17:54.550Z,86.40
2023-03-05T15:20:24.137Z,84.20
2023-03-05T15:22:52.013Z,85.30
2023-03-05T15:25:22.517Z,86.60
2023-03-05T15:27:51.605Z,84.40
2023-03-05T15:30:23.454Z,87.00
2023-03-05T15:32:51.793Z,85.10
2023-03-05T15:35:19.737Z,86.80
2023-03-05T15:37:47.696Z,87.90
2023-03-05T15:40:15.727Z,85.60
2023-03-05T15:42:44.857Z,86.80
2023-03-05T15:45:12.644Z,88.00
2023-03-05T15:47:40.494Z,85.10
2023-03-05T15:50:09.671Z,85.80
2023-03-05T15:52:37.530Z,85.20
2023-03-05T15:55:06.052Z,86.80
2023-03-05T15:57:36.885Z,86.70
2023-03-05T16:00:08.540Z,86.50
2023-03-05T16:02:38.122Z,86.20
2023-03-05T16:05:07.001Z,88.00
2023-03-05T16:07:36.596Z,85.80
2023-03-05T16:10:05.259Z,87.80
2023-03-05T16:12:40.549Z,87.20
2023-03-05T16:15:12.036Z,88.10
2023-03-05T16:17:41.745Z,86.90
2023-03-05T16:20:11.666Z,85.90
2023-03-05T16:22:39.676Z,87.00
2023-03-05T16:25:08.428Z,88.20
2023-03-05T16:27:36.319Z,86.90
2023-03-05T16:30:04.708Z,86.70
2023-03-05T16:32:34.072Z,86.90
2023-03-05T16:35:01.876Z,86.70
2023-03-05T16:37:29.677Z,87.30
2023-03-05T16:39:59.641Z,88.40
2023-03-05T16:42:27.525Z,87.20
2023-03-05T16:44:55.318Z,87.80
2023-03-05T16:47:23.185Z,87.80
2023-03-05T16:49:52.499Z,88.60
2023-03-05T16:52:21.092Z,87.20
2023-03-05T16:54:49.632Z,87.30
2023-03-05T16:57:17.994Z,87.10
2023-03-05T16:59:46.072Z,88.10
2023-03-05T17:02:15.201Z,87.60
2023-03-05T17:04:43.080Z,88.80
2023-03-05T17:07:12.684Z,89.20
2023-03-05T17:09:40.880Z,87.40
2023-03-05T17:12:08.949Z,88.10
2023-03-05T17:14:36.813Z,89.60
2023-03-05T17:17:04.630Z,88.50
2023-03-05T17:19:32.620Z,89.50
2023-03-05T17:22:00.511Z,88.10
2023-03-05T17:24:30.058Z,88.80
2023-03-05T17:26:57.856Z,89.10
2023-03-05T17:29:25.667Z,88.40
2023-03-05T17:31:53.919Z,88.60
2023-03-05T17:34:33.265Z,89.70
2023-03-05T17:37:03.603Z,88.70
2023-03-05T17:39:32.866Z,88.30
2023-03-05T17:42:00.939Z,87.60
2023-03-05T17:44:28.748Z,87.50
2023-03-05T17:46:56.611Z,87.80
2023-03-05T17:49:24.449Z,87.40
2023-03-05T17:51:52.522Z,87.60
2023-03-05T17:54:20.481Z,87.60
2023-03-05T17:56:49.649Z,87.30
2023-03-05T17:59:17.506Z,87.40
2023-03-05T18:01:45.398Z,87.50
2023-03-05T18:04:15.137Z,87.30
2023-03-05T18:06:42.987Z,87.20
2023-03-05T18:09:10.927Z,87.00
2023-03-05T18:11:39.161Z,87.20
2023-03-05T18:14:08.296Z,87.20
2023-03-05T18:16:36.386Z,87.30
2023-03-05T18:19:04.594Z,87.00
2023-03-05T18:21:32.360Z,87.40
2023-03-05T18:24:00.141Z,87.30
2023-03-05T18:26:28.025Z,87.20
2023-03-05T18:28:55.883Z,87.30
2023-03-05T18:31:25.060Z,87.70
2023-03-05T18:33:52.855Z,87.10
2023-03-05T18:36:20.630Z,87.60
2023-03-05T18:38:48.422Z,87.40
2023-03-05T18:41:21.420Z,87.00
2023-03-05T18:43:50.387Z,87.00
2023-03-05T18:46:18.692Z,86.90
2023-03-05T18:48:48.005Z,87.30
2023-03-05T18:51:17.637Z,87.20
2023-03-05T18:53:45.747Z,87.40
2023-03-05T18:56:13.997Z,87.40
2023-03-05T18:58:41.954Z,88.40
2023-03-05T19:01:09.846Z,87.70
2023-03-05T19:03:37.657Z,87.40
2023-03-05T19:06:08.475Z,87.20
2023-03-05T19:08:36.388Z,87.90
2023-03-05T19:11:04.825Z,87.50
2023-03-05T19:13:39.451Z,87.40
2023-03-05T19:16:08.957Z,87.50
2023-03-05T19:18:43.678Z,87.50
2023-03-05T19:21:12.867Z,87.70
2023-03-05T19:23:40.689Z,87.30
2023-03-05T19:26:09.077Z,87.50
2023-03-05T19:28:36.882Z,87.80
2023-03-05T19:31:04.885Z,87.80
2023-03-05T19:33:32.737Z,87.60
2023-03-05T19:36:00.570Z,87.70
2023-03-05T19:38:29.727Z,87.60
2023-03-05T19:40:57.531Z,87.80
2023-03-05T19:43:25.299Z,88.20
2023-03-05T19:45:53.113Z,88.30
2023-03-05T19:48:20.897Z,88.60
2023-03-05T19:50:48.716Z,88.50
2023-03-05T19:53:16.506Z,88.60
2023-03-05T19:55:45.613Z,88.70
2023-03-05T19:58:13.396Z,88.40
2023-03-05T20:00:41.498Z,88.80
2023-03-05T20:03:09.331Z,89.40
2023-03-05T20:05:37.472Z,88.70
2023-03-05T20:08:05.351Z,88.70
2023-03-05T20:10:33.389Z,88.80
2023-03-05T20:13:03.133Z,88.80
2023-03-05T20:15:31.100Z,88.50
2023-03-05T20:17:59.579Z,88.50
2023-03-05T20:20:27.791Z,88.80
2023-03-05T20:22:55.559Z,88.80
2023-03-05T20:25:24.736Z,88.70
2023-03-05T20:27:52.930Z,89.20
2023-03-05T20:30:22.270Z,88.50
2023-03-05T20:32:50.076Z,88.60
2023-03-05T20:35:19.191Z,88.60
2023-03-05T20:37:59.959Z,88.60
2023-03-05T20:40:27.856Z,88.80
2023-03-05T20:42:55.701Z,88.70
2023-03-05T20:45:24.826Z,89.00
2023-03-05T20:47:52.624Z,88.70
2023-03-05T20:50:20.758Z,89.00
2023-03-05T20:52:48.551Z,88.90
2023-03-05T20:55:16.375Z,89.00
2023-03-05T20:57:45.375Z,88.90
2023-03-05T21:00:14.073Z,88.90
2023-03-05T21:02:43.177Z,88.90
2023-03-05T21:05:12.457Z,88.70
2023-03-05T21:07:40.276Z,89.20
2023-03-05T21:10:08.455Z,89.00
2023-03-05T21:12:36.233Z,89.00
2023-03-05T21:15:05.043Z,89.10
2023-03-05T21:17:32.992Z,89.00
2023-03-05T21:20:02.229Z,89.00
2023-03-05T21:22:30.006Z,89.00
2023-03-05T21:25:03.465Z,89.20
2023-03-05T21:27:31.290Z,89.30
2023-03-05T21:29:59.081Z,89.30
2023-03-05T21:32:27.495Z,89.30
2023-03-05T21:34:55.313Z,89.40
2023-03-05T21:37:24.480Z,89.40
2023-03-05T21:39:52.461Z,89.20
2023-03-05T21:42:20.276Z,89.30
2023-03-05T21:44:48.078Z,90.00
2023-03-05T21:47:15.982Z,89.40
2023-03-05T21:49:43.781Z,89.50
2023-03-05T21:52:12.571Z,89.60
2023-03-05T21:54:42.158Z,89.70
2023-03-05T21:57:12.180Z,89.30
2023-03-05T21:59:41.129Z,89.40
2023-03-05T22:02:12.005Z,89.60
2023-03-05T22:04:39.831Z,89.60
2023-03-05T22:07:08.027Z,89.80
2023-03-05T22:09:36.278Z,89.60
2023-03-05T22:12:07.030Z,89.50
2023-03-05T22:14:34.846Z,89.50
2023-03-05T22:17:03.194Z,89.60
2023-03-05T22:19:31.222Z,89.30
2023-03-05T22:21:59.037Z,89.30
2023-03-05T22:24:26.827Z,89.60
2023-03-05T22:26:54.637Z,89.50
2023-03-05T22:29:23.724Z,89.80
2023-03-05T22:31:51.508Z,89.60
2023-03-05T22:34:19.291Z,89.90
2023-03-05T22:36:47.083Z,89.90
2023-03-05T22:39:14.843Z,89.90
2023-03-05T22:41:42.975Z,89.70
2023-03-05T22:44:10.770Z,89.90
2023-03-05T22:46:40.568Z,90.00
2023-03-05T22:49:08.344Z,89.80
2023-03-05T22:51:36.139Z,90.10
2023-03-05T22:54:03.924Z,90.00
2023-03-05T22:56:31.713Z,90.00
2023-03-05T22:58:59.514Z,90.00
2023-03-05T23:01:27.953Z,90.20
2023-03-05T23:04:03.225Z,90.00
2023-03-05T23:06:31.101Z,90.10
2023-03-05T23:08:58.933Z,90.00
2023-03-05T23:11:26.973Z,90.20
2023-03-05T23:13:54.731Z,90.10
2023-03-05T23:16:22.546Z,90.10
2023-03-05T23:18:50.321Z,90.10
2023-03-05T23:21:19.862Z,90.10
2023-03-05T23:23:47.676Z,90.10
2023-03-05T23:26:15.522Z,90.00
2023-03-05T23:28:43.329Z,90.10
2023-03-05T23:31:11.169Z,89.90
2023-03-05T23:33:39.365Z,90.10
2023-03-05T23:36:07.492Z,90.20
2023-03-05T23:38:37.403Z,90.10
2023-03-05T23:41:09.553Z,90.10
2023-03-05T23:43:37.355Z,90.00
2023-03-05T23:46:11.634Z,90.10
2023-03-05T23:48:39.433Z,90.10
2023-03-05T23:51:09.116Z,90.20
2023-03-05T23:53:38.618Z,90.50
2023-03-05T23:56:10.424Z,90.10
2023-03-05T23:58:39.050Z,90.10
